Accueil
METAR-TAF:

METAR-TAF

Aéroports :

Tokyo Heliport, Japon

latitude: 35-38N, longitude: 139-51E, altitude: 5 m

Observation

Le bulletin a été fait il y a 17 minutes, à 06:00 UTC
Vent 11 kt de sud, variant entre sud/sud-est et sud/sud-ouest
Température 32°C
Humidité 71%
Pression 1007 hPa
Visibilité 10 km ou plus
Quelques nuages à une hauteur de 3000 ft, Cumulonimbus.
Nuages épars

METAR: RJTI 250600Z 18011KT 150V210 9999 FEW030CB SCT/// 32/26 Q1007

Heure: 15:17 (06:17 UTC)


TAF: absent

Observations et prévisions météorologiques de plus de 4000 aéroports (messages METAR et TAF).

Les stations disponibles sont représentées par des disques jaunes et rouges sur la carte.

Passer la souris dessus pour voir le nom de la station.

Cliquer dessus pour voir les observations et prévisions météorologiques.

Pour changer de carte: cliquez sur les boutons verts avec une croix noire pour zoomer, sur le bouton vert avec un tiret pour effectuer un zoom arrière, ou sur les flèches vertes pour les cartes adjacentes.


METAR-TAF: